sensor_id;sensor_type;location;lat;lon;timestamp;P1;durP1;ratioP1;P2;durP2;ratioP2
71048;SDS011;58704;53.358;-6.238;2023-05-29T00:01:31;13.43;;;2.65;;
71048;SDS011;58704;53.358;-6.238;2023-05-29T00:03:56;11.20;;;3.00;;
71048;SDS011;58704;53.358;-6.238;2023-05-29T00:06:22;10.20;;;2.50;;
71048;SDS011;58704;53.358;-6.238;2023-05-29T00:08:48;17.70;;;3.63;;
71048;SDS011;58704;53.358;-6.238;2023-05-29T00:11:13;18.40;;;2.77;;
71048;SDS011;58704;53.358;-6.238;2023-05-29T00:13:38;13.95;;;2.80;;
71048;SDS011;58704;53.358;-6.238;2023-05-29T00:16:05;11.90;;;2.80;;
71048;SDS011;58704;53.358;-6.238;2023-05-29T00:18:30;13.68;;;2.72;;
71048;SDS011;58704;53.358;-6.238;2023-05-29T00:20:56;12.40;;;2.83;;
71048;SDS011;58704;53.358;-6.238;2023-05-29T00:23:21;11.00;;;2.93;;
71048;SDS011;58704;53.358;-6.238;2023-05-29T00:25:47;13.45;;;3.17;;
71048;SDS011;58704;53.358;-6.238;2023-05-29T00:28:12;21.20;;;3.50;;
71048;SDS011;58704;53.358;-6.238;2023-05-29T00:30:38;12.13;;;2.83;;
71048;SDS011;58704;53.358;-6.238;2023-05-29T00:33:04;14.35;;;3.45;;
71048;SDS011;58704;53.358;-6.238;2023-05-29T00:35:30;15.50;;;3.10;;
71048;SDS011;58704;53.358;-6.238;2023-05-29T00:37:55;17.57;;;3.43;;
71048;SDS011;58704;53.358;-6.238;2023-05-29T00:40:21;14.60;;;3.13;;
71048;SDS011;58704;53.358;-6.238;2023-05-29T00:42:46;26.73;;;3.83;;
71048;SDS011;58704;53.358;-6.238;2023-05-29T00:45:11;15.77;;;3.33;;
71048;SDS011;58704;53.358;-6.238;2023-05-29T00:47:38;16.50;;;3.22;;
71048;SDS011;58704;53.358;-6.238;2023-05-29T00:50:04;9.90;;;2.80;;
71048;SDS011;58704;53.358;-6.238;2023-05-29T00:52:31;14.55;;;3.35;;
71048;SDS011;58704;53.358;-6.238;2023-05-29T00:54:56;16.60;;;2.92;;
71048;SDS011;58704;53.358;-6.238;2023-05-29T00:57:22;15.03;;;2.83;;
71048;SDS011;58704;53.358;-6.238;2023-05-29T00:59:48;11.27;;;3.00;;
71048;SDS011;58704;53.358;-6.238;2023-05-29T01:02:14;15.70;;;3.30;;
71048;SDS011;58704;53.358;-6.238;2023-05-29T01:04:41;22.27;;;4.25;;
71048;SDS011;58704;53.358;-6.238;2023-05-29T01:07:07;18.65;;;3.03;;
71048;SDS011;58704;53.358;-6.238;2023-05-29T01:09:34;14.15;;;2.90;;
71048;SDS011;58704;53.358;-6.238;2023-05-29T01:17:51;15.23;;;3.08;;
71048;SDS011;58704;53.358;-6.238;2023-05-29T01:28:32;17.58;;;3.45;;
71048;SDS011;58704;53.358;-6.238;2023-05-29T01:31:07;12.60;;;3.10;;
71048;SDS011;58704;53.358;-6.238;2023-05-29T01:33:38;18.85;;;3.95;;
71048;SDS011;58704;53.358;-6.238;2023-05-29T01:36:05;16.02;;;3.30;;
71048;SDS011;58704;53.358;-6.238;2023-05-29T01:38:32;14.80;;;2.77;;
71048;SDS011;58704;53.358;-6.238;2023-05-29T01:40:57;10.82;;;2.30;;
71048;SDS011;58704;53.358;-6.238;2023-05-29T01:43:23;12.83;;;2.70;;
71048;SDS011;58704;53.358;-6.238;2023-05-29T01:45:48;17.40;;;2.80;;
71048;SDS011;58704;53.358;-6.238;2023-05-29T01:48:14;14.57;;;3.03;;
71048;SDS011;58704;53.358;-6.238;2023-05-29T01:50:39;10.77;;;3.03;;
71048;SDS011;58704;53.358;-6.238;2023-05-29T01:53:05;13.57;;;3.00;;
71048;SDS011;58704;53.358;-6.238;2023-05-29T01:55:31;11.10;;;3.20;;
71048;SDS011;58704;53.358;-6.238;2023-05-29T01:57:56;14.10;;;3.10;;
71048;SDS011;58704;53.358;-6.238;2023-05-29T02:00:22;11.02;;;2.70;;
71048;SDS011;58704;53.358;-6.238;2023-05-29T02:02:47;15.73;;;2.80;;
71048;SDS011;58704;53.358;-6.238;2023-05-29T02:05:12;13.57;;;2.90;;
71048;SDS011;58704;53.358;-6.238;2023-05-29T02:07:38;11.82;;;3.00;;
71048;SDS011;58704;53.358;-6.238;2023-05-29T02:10:04;15.30;;;3.03;;
71048;SDS011;58704;53.358;-6.238;2023-05-29T02:12:30;17.10;;;3.38;;
71048;SDS011;58704;53.358;-6.238;2023-05-29T02:14:55;10.73;;;3.10;;
71048;SDS011;58704;53.358;-6.238;2023-05-29T02:17:21;19.33;;;3.92;;
71048;SDS011;58704;53.358;-6.238;2023-05-29T02:19:47;17.07;;;2.83;;
71048;SDS011;58704;53.358;-6.238;2023-05-29T02:22:12;13.67;;;2.90;;
71048;SDS011;58704;53.358;-6.238;2023-05-29T02:24:38;20.10;;;3.07;;
71048;SDS011;58704;53.358;-6.238;2023-05-29T02:27:03;16.67;;;3.63;;
71048;SDS011;58704;53.358;-6.238;2023-05-29T02:29:29;16.10;;;3.10;;
71048;SDS011;58704;53.358;-6.238;2023-05-29T02:31:54;15.35;;;3.33;;
71048;SDS011;58704;53.358;-6.238;2023-05-29T02:34:20;15.87;;;2.90;;
71048;SDS011;58704;53.358;-6.238;2023-05-29T02:36:47;15.10;;;2.83;;
71048;SDS011;58704;53.358;-6.238;2023-05-29T02:39:13;25.97;;;4.60;;
71048;SDS011;58704;53.358;-6.238;2023-05-29T02:41:39;14.95;;;2.70;;
71048;SDS011;58704;53.358;-6.238;2023-05-29T02:44:04;19.30;;;3.10;;
71048;SDS011;58704;53.358;-6.238;2023-05-29T02:46:29;19.37;;;2.90;;
71048;SDS011;58704;53.358;-6.238;2023-05-29T02:48:55;17.87;;;2.90;;
71048;SDS011;58704;53.358;-6.238;2023-05-29T02:51:20;18.08;;;3.92;;
71048;SDS011;58704;53.358;-6.238;2023-05-29T02:53:46;15.30;;;3.43;;
71048;SDS011;58704;53.358;-6.238;2023-05-29T02:56:11;18.20;;;3.67;;
71048;SDS011;58704;53.358;-6.238;2023-05-29T02:58:37;20.85;;;4.10;;
71048;SDS011;58704;53.358;-6.238;2023-05-29T03:01:03;18.00;;;3.47;;
71048;SDS011;58704;53.358;-6.238;2023-05-29T03:03:29;13.00;;;3.15;;
71048;SDS011;58704;53.358;-6.238;2023-05-29T03:05:55;16.47;;;3.00;;
71048;SDS011;58704;53.358;-6.238;2023-05-29T03:08:20;11.13;;;2.72;;
71048;SDS011;58704;53.358;-6.238;2023-05-29T03:10:46;18.23;;;3.00;;
71048;SDS011;58704;53.358;-6.238;2023-05-29T03:13:12;13.50;;;3.30;;
71048;SDS011;58704;53.358;-6.238;2023-05-29T03:15:38;17.10;;;3.33;;
71048;SDS011;58704;53.358;-6.238;2023-05-29T03:18:03;22.23;;;3.42;;
71048;SDS011;58704;53.358;-6.238;2023-05-29T03:20:29;18.33;;;3.03;;
71048;SDS011;58704;53.358;-6.238;2023-05-29T03:22:54;12.93;;;3.43;;
71048;SDS011;58704;53.358;-6.238;2023-05-29T03:25:20;11.63;;;3.10;;
71048;SDS011;58704;53.358;-6.238;2023-05-29T03:27:45;13.77;;;2.85;;
71048;SDS011;58704;53.358;-6.238;2023-05-29T03:30:11;14.63;;;2.90;;
71048;SDS011;58704;53.358;-6.238;2023-05-29T03:32:36;15.77;;;3.05;;
71048;SDS011;58704;53.358;-6.238;2023-05-29T03:35:02;14.50;;;3.97;;
71048;SDS011;58704;53.358;-6.238;2023-05-29T03:37:28;16.90;;;3.45;;
71048;SDS011;58704;53.358;-6.238;2023-05-29T03:39:54;13.50;;;3.80;;
71048;SDS011;58704;53.358;-6.238;2023-05-29T03:42:20;18.90;;;3.97;;
71048;SDS011;58704;53.358;-6.238;2023-05-29T03:44:45;21.87;;;3.80;;
71048;SDS011;58704;53.358;-6.238;2023-05-29T03:47:11;11.53;;;3.23;;
71048;SDS011;58704;53.358;-6.238;2023-05-29T03:49:36;20.13;;;3.60;;
71048;SDS011;58704;53.358;-6.238;2023-05-29T03:52:02;18.73;;;3.27;;
71048;SDS011;58704;53.358;-6.238;2023-05-29T03:54:27;15.07;;;3.05;;
71048;SDS011;58704;53.358;-6.238;2023-05-29T03:56:53;13.30;;;3.27;;
71048;SDS011;58704;53.358;-6.238;2023-05-29T03:59:18;13.70;;;3.10;;
71048;SDS011;58704;53.358;-6.238;2023-05-29T04:01:43;22.63;;;4.10;;
71048;SDS011;58704;53.358;-6.238;2023-05-29T04:04:09;14.70;;;3.13;;
71048;SDS011;58704;53.358;-6.238;2023-05-29T04:06:35;18.43;;;3.47;;
71048;SDS011;58704;53.358;-6.238;2023-05-29T04:09:03;15.02;;;2.95;;
71048;SDS011;58704;53.358;-6.238;2023-05-29T04:11:31;19.98;;;4.13;;
71048;SDS011;58704;53.358;-6.238;2023-05-29T04:13:59;15.35;;;3.60;;
71048;SDS011;58704;53.358;-6.238;2023-05-29T04:16:25;17.58;;;3.92;;
71048;SDS011;58704;53.358;-6.238;2023-05-29T04:18:50;20.53;;;4.53;;
71048;SDS011;58704;53.358;-6.238;2023-05-29T04:21:16;13.70;;;3.73;;
71048;SDS011;58704;53.358;-6.238;2023-05-29T04:23:41;14.43;;;3.57;;
71048;SDS011;58704;53.358;-6.238;2023-05-29T04:26:07;10.65;;;3.53;;
71048;SDS011;58704;53.358;-6.238;2023-05-29T04:28:32;20.73;;;4.27;;
71048;SDS011;58704;53.358;-6.238;2023-05-29T04:30:58;15.73;;;3.30;;
71048;SDS011;58704;53.358;-6.238;2023-05-29T04:33:24;12.43;;;3.22;;
71048;SDS011;58704;53.358;-6.238;2023-05-29T04:35:50;13.00;;;3.45;;
71048;SDS011;58704;53.358;-6.238;2023-05-29T04:38:16;9.20;;;3.47;;
71048;SDS011;58704;53.358;-6.238;2023-05-29T04:40:42;19.50;;;4.00;;
71048;SDS011;58704;53.358;-6.238;2023-05-29T04:43:09;14.55;;;3.85;;
71048;SDS011;58704;53.358;-6.238;2023-05-29T04:45:35;15.23;;;4.25;;
71048;SDS011;58704;53.358;-6.238;2023-05-29T04:48:02;20.07;;;4.70;;
71048;SDS011;58704;53.358;-6.238;2023-05-29T04:50:28;15.27;;;3.50;;
71048;SDS011;58704;53.358;-6.238;2023-05-29T04:52:56;11.85;;;3.28;;
71048;SDS011;58704;53.358;-6.238;2023-05-29T04:55:22;16.67;;;3.63;;
71048;SDS011;58704;53.358;-6.238;2023-05-29T04:57:48;17.42;;;4.80;;
71048;SDS011;58704;53.358;-6.238;2023-05-29T05:00:13;19.97;;;4.03;;
71048;SDS011;58704;53.358;-6.238;2023-05-29T05:02:42;25.95;;;4.50;;
71048;SDS011;58704;53.358;-6.238;2023-05-29T05:05:08;18.23;;;4.17;;
71048;SDS011;58704;53.358;-6.238;2023-05-29T05:07:34;16.35;;;4.10;;
71048;SDS011;58704;53.358;-6.238;2023-05-29T05:10:00;12.70;;;3.63;;
71048;SDS011;58704;53.358;-6.238;2023-05-29T05:12:26;17.67;;;3.80;;
71048;SDS011;58704;53.358;-6.238;2023-05-29T05:14:51;17.95;;;4.45;;
71048;SDS011;58704;53.358;-6.238;2023-05-29T05:17:17;13.03;;;4.10;;
71048;SDS011;58704;53.358;-6.238;2023-05-29T05:19:42;18.87;;;3.77;;
71048;SDS011;58704;53.358;-6.238;2023-05-29T05:22:07;13.93;;;3.60;;
71048;SDS011;58704;53.358;-6.238;2023-05-29T05:24:33;18.73;;;3.60;;
71048;SDS011;58704;53.358;-6.238;2023-05-29T05:27:00;15.97;;;3.40;;
71048;SDS011;58704;53.358;-6.238;2023-05-29T05:29:25;13.43;;;4.05;;
71048;SDS011;58704;53.358;-6.238;2023-05-29T05:31:50;17.13;;;3.93;;
71048;SDS011;58704;53.358;-6.238;2023-05-29T05:34:16;22.93;;;4.00;;
71048;SDS011;58704;53.358;-6.238;2023-05-29T05:36:41;19.67;;;3.73;;
71048;SDS011;58704;53.358;-6.238;2023-05-29T05:39:07;16.37;;;4.00;;
71048;SDS011;58704;53.358;-6.238;2023-05-29T05:41:32;19.07;;;4.57;;
71048;SDS011;58704;53.358;-6.238;2023-05-29T05:43:57;16.30;;;3.90;;
71048;SDS011;58704;53.358;-6.238;2023-05-29T05:46:23;17.00;;;5.23;;
71048;SDS011;58704;53.358;-6.238;2023-05-29T05:48:48;23.40;;;6.17;;
71048;SDS011;58704;53.358;-6.238;2023-05-29T05:51:14;21.95;;;5.15;;
71048;SDS011;58704;53.358;-6.238;2023-05-29T05:53:39;21.50;;;5.87;;
71048;SDS011;58704;53.358;-6.238;2023-05-29T05:56:05;22.37;;;5.20;;
71048;SDS011;58704;53.358;-6.238;2023-05-29T05:58:30;20.58;;;5.38;;
71048;SDS011;58704;53.358;-6.238;2023-05-29T06:00:56;22.50;;;5.73;;
71048;SDS011;58704;53.358;-6.238;2023-05-29T06:03:22;24.02;;;6.20;;
71048;SDS011;58704;53.358;-6.238;2023-05-29T06:05:47;18.27;;;5.90;;
71048;SDS011;58704;53.358;-6.238;2023-05-29T06:08:13;21.87;;;6.00;;
71048;SDS011;58704;53.358;-6.238;2023-05-29T06:10:38;21.37;;;5.87;;
71048;SDS011;58704;53.358;-6.238;2023-05-29T06:13:04;18.55;;;5.65;;
71048;SDS011;58704;53.358;-6.238;2023-05-29T06:15:29;24.27;;;6.70;;
71048;SDS011;58704;53.358;-6.238;2023-05-29T06:17:54;21.50;;;6.27;;
71048;SDS011;58704;53.358;-6.238;2023-05-29T06:20:20;24.27;;;7.00;;
71048;SDS011;58704;53.358;-6.238;2023-05-29T06:22:46;21.57;;;6.20;;
71048;SDS011;58704;53.358;-6.238;2023-05-29T06:25:16;22.55;;;5.57;;
71048;SDS011;58704;53.358;-6.238;2023-05-29T06:27:42;19.75;;;5.60;;
71048;SDS011;58704;53.358;-6.238;2023-05-29T06:30:07;20.07;;;6.20;;
71048;SDS011;58704;53.358;-6.238;2023-05-29T06:32:33;21.10;;;5.90;;
71048;SDS011;58704;53.358;-6.238;2023-05-29T06:34:58;14.10;;;5.20;;
71048;SDS011;58704;53.358;-6.238;2023-05-29T06:37:24;21.43;;;5.47;;
71048;SDS011;58704;53.358;-6.238;2023-05-29T06:39:49;20.50;;;5.50;;
71048;SDS011;58704;53.358;-6.238;2023-05-29T06:42:15;24.10;;;5.75;;
71048;SDS011;58704;53.358;-6.238;2023-05-29T06:44:40;17.23;;;6.37;;
71048;SDS011;58704;53.358;-6.238;2023-05-29T06:47:06;17.43;;;5.10;;
71048;SDS011;58704;53.358;-6.238;2023-05-29T06:49:32;19.50;;;5.68;;
71048;SDS011;58704;53.358;-6.238;2023-05-29T06:51:57;15.63;;;5.13;;
71048;SDS011;58704;53.358;-6.238;2023-05-29T06:54:23;18.98;;;6.00;;
71048;SDS011;58704;53.358;-6.238;2023-05-29T06:56:49;18.77;;;5.70;;
71048;SDS011;58704;53.358;-6.238;2023-05-29T06:59:14;23.90;;;5.53;;
71048;SDS011;58704;53.358;-6.238;2023-05-29T07:01:40;20.50;;;6.13;;
71048;SDS011;58704;53.358;-6.238;2023-05-29T07:04:05;17.20;;;5.10;;
71048;SDS011;58704;53.358;-6.238;2023-05-29T07:06:31;21.50;;;6.03;;
71048;SDS011;58704;53.358;-6.238;2023-05-29T07:08:58;16.40;;;5.82;;
71048;SDS011;58704;53.358;-6.238;2023-05-29T07:11:23;20.13;;;5.90;;
71048;SDS011;58704;53.358;-6.238;2023-05-29T07:13:50;19.55;;;5.97;;
71048;SDS011;58704;53.358;-6.238;2023-05-29T07:16:16;20.60;;;6.10;;
71048;SDS011;58704;53.358;-6.238;2023-05-29T07:18:43;17.30;;;5.60;;
71048;SDS011;58704;53.358;-6.238;2023-05-29T07:21:09;17.87;;;5.20;;
71048;SDS011;58704;53.358;-6.238;2023-05-29T07:23:35;16.27;;;5.55;;
71048;SDS011;58704;53.358;-6.238;2023-05-29T07:26:00;22.60;;;5.60;;
71048;SDS011;58704;53.358;-6.238;2023-05-29T07:28:26;22.63;;;6.50;;
71048;SDS011;58704;53.358;-6.238;2023-05-29T07:30:51;19.70;;;5.67;;
71048;SDS011;58704;53.358;-6.238;2023-05-29T07:33:16;18.90;;;5.67;;
71048;SDS011;58704;53.358;-6.238;2023-05-29T07:35:42;20.97;;;5.53;;
71048;SDS011;58704;53.358;-6.238;2023-05-29T07:38:10;24.23;;;6.10;;
71048;SDS011;58704;53.358;-6.238;2023-05-29T07:40:36;19.70;;;6.40;;
71048;SDS011;58704;53.358;-6.238;2023-05-29T07:43:01;15.13;;;5.90;;
71048;SDS011;58704;53.358;-6.238;2023-05-29T07:45:27;19.83;;;5.80;;
71048;SDS011;58704;53.358;-6.238;2023-05-29T07:47:55;20.10;;;5.05;;
71048;SDS011;58704;53.358;-6.238;2023-05-29T07:50:22;18.30;;;5.88;;
71048;SDS011;58704;53.358;-6.238;2023-05-29T07:52:47;17.85;;;5.57;;
71048;SDS011;58704;53.358;-6.238;2023-05-29T07:55:13;13.57;;;5.43;;
71048;SDS011;58704;53.358;-6.238;2023-05-29T07:57:40;20.73;;;5.20;;
71048;SDS011;58704;53.358;-6.238;2023-05-29T08:00:10;17.98;;;5.43;;
71048;SDS011;58704;53.358;-6.238;2023-05-29T08:02:41;17.67;;;5.75;;
71048;SDS011;58704;53.358;-6.238;2023-05-29T08:05:07;22.30;;;5.47;;
71048;SDS011;58704;53.358;-6.238;2023-05-29T08:07:34;14.57;;;4.72;;
71048;SDS011;58704;53.358;-6.238;2023-05-29T08:09:59;14.97;;;4.50;;
71048;SDS011;58704;53.358;-6.238;2023-05-29T08:12:25;14.25;;;4.93;;
71048;SDS011;58704;53.358;-6.238;2023-05-29T08:14:50;16.77;;;5.07;;
71048;SDS011;58704;53.358;-6.238;2023-05-29T08:17:16;17.77;;;5.30;;
71048;SDS011;58704;53.358;-6.238;2023-05-29T08:19:41;15.07;;;4.33;;
71048;SDS011;58704;53.358;-6.238;2023-05-29T08:22:06;14.90;;;4.35;;
71048;SDS011;58704;53.358;-6.238;2023-05-29T08:24:32;18.87;;;4.70;;
71048;SDS011;58704;53.358;-6.238;2023-05-29T08:26:58;26.53;;;4.70;;
71048;SDS011;58704;53.358;-6.238;2023-05-29T08:29:23;12.48;;;4.15;;
71048;SDS011;58704;53.358;-6.238;2023-05-29T08:31:49;14.83;;;4.20;;
71048;SDS011;58704;53.358;-6.238;2023-05-29T08:34:14;11.27;;;3.60;;
71048;SDS011;58704;53.358;-6.238;2023-05-29T08:36:39;18.73;;;4.80;;
71048;SDS011;58704;53.358;-6.238;2023-05-29T08:39:06;21.33;;;4.38;;
71048;SDS011;58704;53.358;-6.238;2023-05-29T08:41:48;15.85;;;4.30;;
71048;SDS011;58704;53.358;-6.238;2023-05-29T08:44:15;16.63;;;4.07;;
71048;SDS011;58704;53.358;-6.238;2023-05-29T08:46:45;18.05;;;3.72;;
71048;SDS011;58704;53.358;-6.238;2023-05-29T08:49:11;20.53;;;3.50;;
71048;SDS011;58704;53.358;-6.238;2023-05-29T08:51:41;13.13;;;3.55;;
71048;SDS011;58704;53.358;-6.238;2023-05-29T08:54:09;14.00;;;3.97;;
71048;SDS011;58704;53.358;-6.238;2023-05-29T08:56:36;12.90;;;3.08;;
71048;SDS011;58704;53.358;-6.238;2023-05-29T08:59:01;9.57;;;3.33;;
71048;SDS011;58704;53.358;-6.238;2023-05-29T09:01:27;18.08;;;4.28;;
71048;SDS011;58704;53.358;-6.238;2023-05-29T09:03:53;12.82;;;3.22;;
71048;SDS011;58704;53.358;-6.238;2023-05-29T09:06:19;13.60;;;3.73;;
71048;SDS011;58704;53.358;-6.238;2023-05-29T09:08:45;12.48;;;3.72;;
71048;SDS011;58704;53.358;-6.238;2023-05-29T09:11:11;12.85;;;3.33;;
71048;SDS011;58704;53.358;-6.238;2023-05-29T09:13:37;13.60;;;3.47;;
71048;SDS011;58704;53.358;-6.238;2023-05-29T09:16:02;11.77;;;3.17;;
71048;SDS011;58704;53.358;-6.238;2023-05-29T09:18:31;18.92;;;3.80;;
71048;SDS011;58704;53.358;-6.238;2023-05-29T09:20:57;12.40;;;3.45;;
71048;SDS011;58704;53.358;-6.238;2023-05-29T09:23:24;15.05;;;3.28;;
71048;SDS011;58704;53.358;-6.238;2023-05-29T09:25:51;13.77;;;3.83;;
71048;SDS011;58704;53.358;-6.238;2023-05-29T09:28:18;17.85;;;4.18;;
71048;SDS011;58704;53.358;-6.238;2023-05-29T09:30:44;15.55;;;3.75;;
71048;SDS011;58704;53.358;-6.238;2023-05-29T09:33:12;16.45;;;3.97;;
71048;SDS011;58704;53.358;-6.238;2023-05-29T09:35:39;10.48;;;3.50;;
71048;SDS011;58704;53.358;-6.238;2023-05-29T09:38:08;9.20;;;3.10;;
71048;SDS011;58704;53.358;-6.238;2023-05-29T09:40:36;11.18;;;3.38;;
71048;SDS011;58704;53.358;-6.238;2023-05-29T09:43:05;15.82;;;3.53;;
71048;SDS011;58704;53.358;-6.238;2023-05-29T09:45:40;15.85;;;3.88;;
71048;SDS011;58704;53.358;-6.238;2023-05-29T09:51:07;13.83;;;3.30;;
71048;SDS011;58704;53.358;-6.238;2023-05-29T09:53:44;15.80;;;4.00;;
71048;SDS011;58704;53.358;-6.238;2023-05-29T09:56:11;16.80;;;4.00;;
71048;SDS011;58704;53.358;-6.238;2023-05-29T09:58:39;13.10;;;3.58;;
71048;SDS011;58704;53.358;-6.238;2023-05-29T10:01:10;8.63;;;2.78;;
71048;SDS011;58704;53.358;-6.238;2023-05-29T10:03:36;13.70;;;3.50;;
71048;SDS011;58704;53.358;-6.238;2023-05-29T10:06:02;13.23;;;3.53;;
71048;SDS011;58704;53.358;-6.238;2023-05-29T10:08:30;15.90;;;3.37;;
71048;SDS011;58704;53.358;-6.238;2023-05-29T10:13:38;10.60;;;3.15;;
71048;SDS011;58704;53.358;-6.238;2023-05-29T10:16:07;14.10;;;3.28;;
71048;SDS011;58704;53.358;-6.238;2023-05-29T10:18:37;17.88;;;3.75;;
71048;SDS011;58704;53.358;-6.238;2023-05-29T10:21:07;16.00;;;4.00;;
71048;SDS011;58704;53.358;-6.238;2023-05-29T10:23:32;11.80;;;2.97;;
71048;SDS011;58704;53.358;-6.238;2023-05-29T10:26:06;20.27;;;13.60;;
71048;SDS011;58704;53.358;-6.238;2023-05-29T10:28:36;14.88;;;4.25;;
71048;SDS011;58704;53.358;-6.238;2023-05-29T10:31:08;11.82;;;2.75;;
71048;SDS011;58704;53.358;-6.238;2023-05-29T10:36:13;15.55;;;3.55;;
71048;SDS011;58704;53.358;-6.238;2023-05-29T10:38:45;13.68;;;3.13;;
71048;SDS011;58704;53.358;-6.238;2023-05-29T10:43:51;12.70;;;3.03;;
71048;SDS011;58704;53.358;-6.238;2023-05-29T10:46:18;11.87;;;3.20;;
71048;SDS011;58704;53.358;-6.238;2023-05-29T10:48:43;13.40;;;3.10;;
71048;SDS011;58704;53.358;-6.238;2023-05-29T10:51:23;12.17;;;2.77;;
71048;SDS011;58704;53.358;-6.238;2023-05-29T10:53:53;13.25;;;3.17;;
71048;SDS011;58704;53.358;-6.238;2023-05-29T10:56:22;15.47;;;3.20;;
71048;SDS011;58704;53.358;-6.238;2023-05-29T10:58:53;12.63;;;3.42;;
71048;SDS011;58704;53.358;-6.238;2023-05-29T11:01:22;10.18;;;3.10;;
71048;SDS011;58704;53.358;-6.238;2023-05-29T11:03:49;8.20;;;2.85;;
71048;SDS011;58704;53.358;-6.238;2023-05-29T11:06:18;14.37;;;3.50;;
71048;SDS011;58704;53.358;-6.238;2023-05-29T11:08:54;11.48;;;2.85;;
71048;SDS011;58704;53.358;-6.238;2023-05-29T11:13:52;9.60;;;2.58;;
71048;SDS011;58704;53.358;-6.238;2023-05-29T11:18:53;8.88;;;2.85;;
71048;SDS011;58704;53.358;-6.238;2023-05-29T11:21:33;8.57;;;2.60;;
71048;SDS011;58704;53.358;-6.238;2023-05-29T11:24:23;10.30;;;2.55;;
71048;SDS011;58704;53.358;-6.238;2023-05-29T11:26:50;10.57;;;3.10;;
71048;SDS011;58704;53.358;-6.238;2023-05-29T11:29:23;11.13;;;3.33;;
71048;SDS011;58704;53.358;-6.238;2023-05-29T11:31:54;11.70;;;2.85;;
71048;SDS011;58704;53.358;-6.238;2023-05-29T11:34:21;15.07;;;3.10;;
71048;SDS011;58704;53.358;-6.238;2023-05-29T11:36:47;9.45;;;3.30;;
71048;SDS011;58704;53.358;-6.238;2023-05-29T11:39:14;17.13;;;3.25;;
71048;SDS011;58704;53.358;-6.238;2023-05-29T11:41:40;10.13;;;2.93;;
71048;SDS011;58704;53.358;-6.238;2023-05-29T11:44:05;7.90;;;2.87;;
71048;SDS011;58704;53.358;-6.238;2023-05-29T11:46:31;8.23;;;2.83;;
71048;SDS011;58704;53.358;-6.238;2023-05-29T11:48:57;11.55;;;3.10;;
71048;SDS011;58704;53.358;-6.238;2023-05-29T11:51:23;12.73;;;3.90;;
71048;SDS011;58704;53.358;-6.238;2023-05-29T11:53:49;12.33;;;3.20;;
71048;SDS011;58704;53.358;-6.238;2023-05-29T11:56:17;13.15;;;3.10;;
71048;SDS011;58704;53.358;-6.238;2023-05-29T11:58:43;14.00;;;3.47;;
71048;SDS011;58704;53.358;-6.238;2023-05-29T12:01:10;9.73;;;3.13;;
71048;SDS011;58704;53.358;-6.238;2023-05-29T12:03:41;10.43;;;3.13;;
71048;SDS011;58704;53.358;-6.238;2023-05-29T12:06:10;11.60;;;3.00;;
71048;SDS011;58704;53.358;-6.238;2023-05-29T12:08:36;13.70;;;3.70;;
71048;SDS011;58704;53.358;-6.238;2023-05-29T12:11:02;13.60;;;3.75;;
71048;SDS011;58704;53.358;-6.238;2023-05-29T12:13:28;11.97;;;3.27;;
71048;SDS011;58704;53.358;-6.238;2023-05-29T12:15:55;7.97;;;2.55;;
71048;SDS011;58704;53.358;-6.238;2023-05-29T12:18:21;12.35;;;3.42;;
71048;SDS011;58704;53.358;-6.238;2023-05-29T12:20:47;10.33;;;3.10;;
71048;SDS011;58704;53.358;-6.238;2023-05-29T12:23:12;13.00;;;3.33;;
71048;SDS011;58704;53.358;-6.238;2023-05-29T12:25:38;10.60;;;3.27;;
71048;SDS011;58704;53.358;-6.238;2023-05-29T12:28:03;16.23;;;3.87;;
71048;SDS011;58704;53.358;-6.238;2023-05-29T12:30:29;11.18;;;3.67;;
71048;SDS011;58704;53.358;-6.238;2023-05-29T12:32:55;14.20;;;3.25;;
71048;SDS011;58704;53.358;-6.238;2023-05-29T12:35:25;10.10;;;3.50;;
71048;SDS011;58704;53.358;-6.238;2023-05-29T12:40:21;9.30;;;3.05;;
71048;SDS011;58704;53.358;-6.238;2023-05-29T12:42:53;10.85;;;3.60;;
71048;SDS011;58704;53.358;-6.238;2023-05-29T12:45:27;13.88;;;3.75;;
71048;SDS011;58704;53.358;-6.238;2023-05-29T12:47:57;15.20;;;3.67;;
71048;SDS011;58704;53.358;-6.238;2023-05-29T12:50:30;13.93;;;4.18;;
71048;SDS011;58704;53.358;-6.238;2023-05-29T12:53:02;13.35;;;3.40;;
71048;SDS011;58704;53.358;-6.238;2023-05-29T12:55:37;14.07;;;2.92;;
71048;SDS011;58704;53.358;-6.238;2023-05-29T12:58:06;13.25;;;3.47;;
71048;SDS011;58704;53.358;-6.238;2023-05-29T13:00:42;11.73;;;3.43;;
71048;SDS011;58704;53.358;-6.238;2023-05-29T13:03:08;12.10;;;3.17;;
71048;SDS011;58704;53.358;-6.238;2023-05-29T13:05:35;9.85;;;3.17;;
71048;SDS011;58704;53.358;-6.238;2023-05-29T13:08:01;13.00;;;3.70;;
71048;SDS011;58704;53.358;-6.238;2023-05-29T13:10:27;11.03;;;3.50;;
71048;SDS011;58704;53.358;-6.238;2023-05-29T13:12:53;13.50;;;3.33;;
71048;SDS011;58704;53.358;-6.238;2023-05-29T13:15:23;11.90;;;3.20;;
71048;SDS011;58704;53.358;-6.238;2023-05-29T13:17:48;16.90;;;3.92;;
71048;SDS011;58704;53.358;-6.238;2023-05-29T13:20:14;16.85;;;4.18;;
71048;SDS011;58704;53.358;-6.238;2023-05-29T13:22:40;15.77;;;3.67;;
71048;SDS011;58704;53.358;-6.238;2023-05-29T13:25:06;13.82;;;3.55;;
71048;SDS011;58704;53.358;-6.238;2023-05-29T13:27:34;12.75;;;3.47;;
71048;SDS011;58704;53.358;-6.238;2023-05-29T13:30:01;12.07;;;3.22;;
71048;SDS011;58704;53.358;-6.238;2023-05-29T13:32:27;10.03;;;3.57;;
71048;SDS011;58704;53.358;-6.238;2023-05-29T13:34:52;10.23;;;3.67;;
71048;SDS011;58704;53.358;-6.238;2023-05-29T13:37:18;11.10;;;4.00;;
71048;SDS011;58704;53.358;-6.238;2023-05-29T13:39:43;12.20;;;3.20;;
71048;SDS011;58704;53.358;-6.238;2023-05-29T13:42:08;11.77;;;3.23;;
71048;SDS011;58704;53.358;-6.238;2023-05-29T13:44:34;12.43;;;3.23;;
71048;SDS011;58704;53.358;-6.238;2023-05-29T13:46:59;11.35;;;3.88;;
71048;SDS011;58704;53.358;-6.238;2023-05-29T13:49:25;12.40;;;3.73;;
71048;SDS011;58704;53.358;-6.238;2023-05-29T13:51:51;11.82;;;3.45;;
71048;SDS011;58704;53.358;-6.238;2023-05-29T13:54:16;10.30;;;3.20;;
71048;SDS011;58704;53.358;-6.238;2023-05-29T13:56:43;13.32;;;3.47;;
71048;SDS011;58704;53.358;-6.238;2023-05-29T13:59:11;9.55;;;3.45;;
71048;SDS011;58704;53.358;-6.238;2023-05-29T14:01:36;11.73;;;3.53;;
71048;SDS011;58704;53.358;-6.238;2023-05-29T14:04:01;16.97;;;3.80;;
71048;SDS011;58704;53.358;-6.238;2023-05-29T14:06:27;10.03;;;2.90;;
71048;SDS011;58704;53.358;-6.238;2023-05-29T14:08:52;10.30;;;3.23;;
71048;SDS011;58704;53.358;-6.238;2023-05-29T14:11:18;10.47;;;3.40;;
71048;SDS011;58704;53.358;-6.238;2023-05-29T14:13:44;12.25;;;3.33;;
71048;SDS011;58704;53.358;-6.238;2023-05-29T14:16:09;9.83;;;3.53;;
71048;SDS011;58704;53.358;-6.238;2023-05-29T14:18:35;12.27;;;3.80;;
71048;SDS011;58704;53.358;-6.238;2023-05-29T14:21:00;15.73;;;3.30;;
71048;SDS011;58704;53.358;-6.238;2023-05-29T14:23:25;14.23;;;3.60;;
71048;SDS011;58704;53.358;-6.238;2023-05-29T14:25:51;12.90;;;3.80;;
71048;SDS011;58704;53.358;-6.238;2023-05-29T14:28:16;11.13;;;3.80;;
71048;SDS011;58704;53.358;-6.238;2023-05-29T14:30:42;11.27;;;3.43;;
71048;SDS011;58704;53.358;-6.238;2023-05-29T14:33:08;13.30;;;3.90;;
71048;SDS011;58704;53.358;-6.238;2023-05-29T14:35:33;9.30;;;3.20;;
71048;SDS011;58704;53.358;-6.238;2023-05-29T14:37:59;10.17;;;3.10;;
71048;SDS011;58704;53.358;-6.238;2023-05-29T14:40:24;14.07;;;3.25;;
71048;SDS011;58704;53.358;-6.238;2023-05-29T14:42:50;6.60;;;2.93;;
71048;SDS011;58704;53.358;-6.238;2023-05-29T14:45:16;10.27;;;3.27;;
71048;SDS011;58704;53.358;-6.238;2023-05-29T14:47:42;9.80;;;3.00;;
71048;SDS011;58704;53.358;-6.238;2023-05-29T14:50:07;9.10;;;2.90;;
71048;SDS011;58704;53.358;-6.238;2023-05-29T14:52:33;12.40;;;3.08;;